Bruce, Wisconsin
Current Conditions -  °F | °C
As of 2:35 AM on Saturday 29 Nov 2014 (Local Time) from KRCX Reporting Station
Overcast Overcast  
Wind Chill: 10°   Ceiling: 600
Heat Index: 20°   Visibility: 7mi
Dew Point: 19°   Wind: 9mph
Humidity: 93%   Direction: 120°ESE
Pressure: 29.68"   Gusts: NA
Location:  45.46°N, 91.27°W
Report Text: KRCX 290835Z AUTO 12008KT 7SM OVC006 M06/M07 A2968 RMK AO2 T10651075
Loading
Personal Weather Stations






























Interactive Weather Map New forecast layout! Learn more

10-Day Weather Forecast

Advertisements
Track Severe Weather on mobile